createdAt,value
2022-10-22T00:00:39.768Z,86.51
2022-10-22T00:03:42.451Z,86.04
2022-10-22T00:06:45.197Z,86.04
2022-10-22T00:09:48.567Z,86.00
2022-10-22T00:12:51.287Z,85.74
2022-10-22T00:15:55.301Z,85.73
2022-10-22T00:18:58.065Z,85.44
2022-10-22T00:22:00.909Z,85.26
2022-10-22T00:25:03.579Z,85.53
2022-10-22T00:28:06.568Z,85.29
2022-10-22T00:31:10.748Z,85.22
2022-10-22T00:34:13.412Z,85.18
2022-10-22T00:37:16.060Z,85.18
2022-10-22T00:40:18.937Z,84.99
2022-10-22T00:43:21.811Z,85.05
2022-10-22T00:46:25.860Z,84.64
2022-10-22T00:49:28.571Z,84.63
2022-10-22T00:52:31.137Z,84.38
2022-10-22T00:55:34.341Z,84.12
2022-10-22T00:58:43.754Z,84.24
2022-10-22T01:01:48.041Z,84.35
2022-10-22T01:04:50.861Z,84.53
2022-10-22T01:07:54.958Z,84.33
2022-10-22T01:11:09.138Z,84.46
2022-10-22T01:14:21.802Z,84.14
2022-10-22T01:17:34.020Z,84.35
2022-10-22T01:20:56.190Z,84.50
2022-10-22T01:24:32.920Z,84.22
2022-10-22T01:27:45.882Z,84.99
2022-10-22T01:30:53.621Z,84.86
2022-10-22T01:33:56.405Z,84.81
2022-10-22T01:37:01.424Z,85.18
2022-10-22T01:40:06.447Z,85.76
2022-10-22T01:43:11.586Z,85.01
2022-10-22T01:46:18.076Z,84.78
2022-10-22T01:49:29.329Z,84.87
2022-10-22T01:52:46.340Z,84.42
2022-10-22T01:56:00.197Z,84.09
2022-10-22T01:59:09.054Z,84.05
2022-10-22T02:02:18.461Z,84.21
2022-10-22T02:05:24.264Z,84.39
2022-10-22T02:08:32.257Z,83.91
2022-10-22T02:11:35.444Z,84.21
2022-10-22T02:14:42.570Z,83.96
2022-10-22T02:17:48.220Z,84.35
2022-10-22T02:20:51.585Z,84.18
2022-10-22T02:23:54.303Z,83.93
2022-10-22T02:27:03.964Z,83.60
2022-10-22T02:30:09.723Z,84.01
2022-10-22T02:33:20.488Z,84.02
2022-10-22T02:36:24.859Z,83.86
2022-10-22T02:39:28.419Z,83.80
2022-10-22T02:42:31.601Z,83.88
2022-10-22T02:45:35.581Z,83.49
2022-10-22T02:48:39.514Z,83.74
2022-10-22T02:51:42.224Z,83.85
2022-10-22T02:54:44.976Z,83.38
2022-10-22T02:57:47.534Z,83.52
2022-10-22T03:00:50.445Z,83.67
2022-10-22T03:03:54.369Z,83.79
2022-10-22T03:06:57.328Z,83.69
2022-10-22T03:10:00.079Z,83.41
2022-10-22T03:13:02.929Z,83.61
2022-10-22T03:16:06.096Z,83.66
2022-10-22T03:19:10.032Z,83.96
2022-10-22T03:22:16.727Z,83.52
2022-10-22T03:25:21.958Z,83.75
2022-10-22T03:28:24.530Z,83.47
2022-10-22T03:31:27.308Z,83.50
2022-10-22T03:34:31.216Z,83.81
2022-10-22T03:37:35.041Z,83.59
2022-10-22T03:40:37.831Z,83.98
2022-10-22T03:43:40.887Z,83.82
2022-10-22T03:46:43.581Z,83.47
2022-10-22T03:49:47.490Z,84.02
2022-10-22T03:52:50.225Z,83.81
2022-10-22T03:55:52.874Z,83.67
2022-10-22T03:58:57.501Z,83.70
2022-10-22T04:02:00.154Z,83.49
2022-10-22T04:05:04.211Z,83.55
2022-10-22T04:08:06.932Z,83.40
2022-10-22T04:11:10.458Z,83.07
2022-10-22T04:14:13.067Z,83.09
2022-10-22T04:17:16.075Z,82.98
2022-10-22T04:20:19.969Z,83.09
2022-10-22T04:23:23.153Z,82.67
2022-10-22T04:26:26.339Z,83.07
2022-10-22T04:29:28.895Z,82.85
2022-10-22T04:32:31.728Z,82.85
2022-10-22T04:35:39.510Z,83.29
2022-10-22T04:38:43.413Z,82.87
2022-10-22T04:41:48.411Z,83.31
2022-10-22T04:44:51.046Z,83.53
2022-10-22T04:47:53.741Z,83.60
2022-10-22T04:51:00.723Z,83.65
2022-10-22T04:54:03.422Z,83.44
2022-10-22T04:57:06.133Z,83.17
2022-10-22T05:00:09.867Z,83.19
2022-10-22T05:03:12.594Z,83.13
2022-10-22T05:06:17.089Z,83.03
2022-10-22T05:09:22.132Z,83.15
2022-10-22T05:12:24.839Z,82.76
2022-10-22T05:15:27.377Z,82.88
2022-10-22T05:18:30.045Z,82.96
2022-10-22T05:21:34.410Z,82.89
2022-10-22T05:24:38.009Z,82.81
2022-10-22T05:27:40.962Z,82.55
2022-10-22T05:30:43.730Z,82.46
2022-10-22T05:33:47.270Z,82.63
2022-10-22T05:36:51.176Z,82.22
2022-10-22T05:40:01.848Z,82.31
2022-10-22T05:43:15.518Z,82.26
2022-10-22T05:46:22.456Z,82.54
2022-10-22T05:49:25.641Z,82.47
2022-10-22T05:52:29.541Z,82.51
2022-10-22T05:55:36.992Z,82.48
2022-10-22T05:58:40.490Z,82.59
2022-10-22T06:01:43.093Z,83.27
2022-10-22T06:04:45.906Z,82.86
2022-10-22T06:07:49.881Z,82.68
2022-10-22T06:10:52.700Z,82.54
2022-10-22T06:13:55.378Z,82.45
2022-10-22T06:17:00.778Z,82.61
2022-10-22T06:23:12.316Z,82.69
2022-10-22T06:26:15.501Z,81.84
2022-10-22T06:29:18.433Z,82.50
2022-10-22T06:32:20.987Z,82.52
2022-10-22T06:35:23.668Z,82.53
2022-10-22T06:38:27.554Z,82.58
2022-10-22T06:41:30.423Z,83.05
2022-10-22T06:44:33.772Z,82.96
2022-10-22T06:47:36.288Z,83.30
2022-10-22T06:50:38.975Z,83.65
2022-10-22T06:53:42.987Z,83.68
2022-10-22T06:56:45.743Z,83.61
2022-10-22T06:59:48.536Z,83.51
2022-10-22T07:02:57.784Z,83.50
2022-10-22T07:06:04.429Z,83.04
2022-10-22T07:09:08.450Z,83.78
2022-10-22T07:12:11.360Z,83.51
2022-10-22T07:15:14.138Z,83.60
2022-10-22T07:18:16.691Z,83.58
2022-10-22T07:21:20.530Z,83.84
2022-10-22T07:24:24.553Z,83.32
2022-10-22T07:27:27.228Z,83.80
2022-10-22T07:30:29.809Z,84.07
2022-10-22T07:33:32.902Z,83.70
2022-10-22T07:36:35.642Z,84.15
2022-10-22T07:39:39.601Z,83.69
2022-10-22T07:42:42.282Z,83.45
2022-10-22T07:45:44.988Z,84.17
2022-10-22T07:48:47.675Z,84.40
2022-10-22T07:51:50.400Z,82.33
2022-10-22T07:54:54.298Z,86.31
2022-10-22T07:57:56.955Z,82.85
2022-10-22T08:01:01.481Z,78.53
2022-10-22T08:04:04.077Z,75.47
2022-10-22T08:07:06.939Z,76.74
2022-10-22T08:10:12.524Z,78.60
2022-10-22T08:13:16.141Z,78.87
2022-10-22T08:16:18.837Z,79.11
2022-10-22T08:19:21.374Z,80.43
2022-10-22T08:22:24.097Z,80.88
2022-10-22T08:25:28.587Z,80.71
2022-10-22T08:28:33.038Z,82.18
2022-10-22T08:31:35.827Z,81.89
2022-10-22T08:34:38.403Z,82.34
2022-10-22T08:37:41.429Z,82.26
2022-10-22T08:40:49.942Z,82.68
2022-10-22T08:44:20.290Z,81.15
2022-10-22T08:47:38.953Z,82.15
2022-10-22T08:50:44.132Z,81.32
2022-10-22T08:53:59.625Z,82.10
2022-10-22T08:57:17.860Z,82.18
2022-10-22T09:00:25.362Z,81.79
2022-10-22T09:03:46.659Z,81.43
2022-10-22T09:06:53.491Z,82.82
2022-10-22T09:10:00.794Z,83.15
2022-10-22T09:13:05.251Z,82.97
2022-10-22T09:16:16.834Z,83.14
2022-10-22T09:19:26.767Z,82.27
2022-10-22T09:22:37.485Z,82.59
2022-10-22T09:25:41.133Z,82.60
2022-10-22T09:28:45.200Z,83.37
2022-10-22T09:31:47.920Z,83.58
2022-10-22T09:34:51.574Z,83.40
2022-10-22T09:38:00.703Z,83.25
2022-10-22T09:41:03.763Z,81.79
2022-10-22T09:44:08.511Z,83.63
2022-10-22T09:47:42.739Z,83.93
2022-10-22T09:50:48.376Z,83.62
2022-10-22T09:53:58.104Z,83.67
2022-10-22T09:57:07.293Z,83.08
2022-10-22T10:00:13.517Z,83.27
2022-10-22T10:03:22.357Z,82.89
2022-10-22T10:06:25.208Z,82.53
2022-10-22T10:09:37.355Z,82.72
2022-10-22T10:12:47.783Z,83.56
2022-10-22T10:15:58.904Z,82.30
2022-10-22T10:19:18.541Z,80.58
2022-10-22T10:22:34.808Z,80.18
2022-10-22T10:25:47.332Z,79.81
2022-10-22T10:29:01.437Z,81.04
2022-10-22T10:32:21.139Z,79.18
2022-10-22T10:35:29.300Z,80.96
2022-10-22T10:38:55.139Z,79.93
2022-10-22T10:42:08.635Z,79.47
2022-10-22T10:45:18.759Z,78.08
2022-10-22T10:48:34.192Z,77.04
2022-10-22T10:51:43.413Z,76.96
2022-10-22T10:54:52.488Z,74.61
2022-10-22T10:58:05.210Z,75.42
2022-10-22T11:01:16.600Z,74.56
2022-10-22T11:04:52.522Z,76.02
2022-10-22T11:08:00.785Z,75.35
2022-10-22T11:11:08.302Z,75.51
2022-10-22T11:14:14.844Z,73.38
2022-10-22T11:17:19.744Z,72.15
2022-10-22T11:20:31.540Z,73.72
2022-10-22T11:23:39.094Z,69.43
2022-10-22T11:26:47.774Z,68.36
2022-10-22T11:29:54.963Z,68.64
2022-10-22T11:33:01.676Z,68.81
2022-10-22T11:36:08.676Z,69.24
2022-10-22T11:39:36.532Z,68.92
2022-10-22T11:42:43.262Z,67.68
2022-10-22T11:45:51.481Z,67.96
2022-10-22T11:49:06.915Z,68.98
2022-10-22T11:52:28.053Z,70.17
2022-10-22T11:55:46.088Z,69.25
2022-10-22T11:58:53.751Z,67.88
2022-10-22T12:01:57.647Z,66.18
2022-10-22T12:05:34.913Z,66.09
2022-10-22T12:08:45.346Z,64.21
2022-10-22T12:11:51.235Z,64.58
2022-10-22T12:14:57.277Z,63.90
2022-10-22T12:18:02.282Z,65.10
2022-10-22T12:21:05.079Z,65.43
2022-10-22T12:24:15.183Z,64.73
2022-10-22T12:27:23.312Z,64.78
2022-10-22T12:30:28.889Z,64.47
2022-10-22T12:33:32.681Z,63.96
2022-10-22T12:36:37.314Z,62.73
2022-10-22T12:39:41.365Z,64.22
2022-10-22T12:42:48.905Z,63.70
2022-10-22T12:45:52.646Z,64.43
2022-10-22T12:48:55.931Z,65.27
2022-10-22T12:52:02.206Z,64.95
2022-10-22T12:55:08.416Z,64.86
2022-10-22T12:58:18.710Z,65.47
2022-10-22T13:01:21.700Z,64.87
2022-10-22T13:04:33.958Z,65.25
2022-10-22T13:07:40.075Z,65.49
2022-10-22T13:10:51.671Z,66.65
2022-10-22T13:14:02.876Z,64.97
2022-10-22T13:17:08.315Z,65.92
2022-10-22T13:20:19.648Z,65.81
2022-10-22T13:23:23.873Z,66.29
2022-10-22T13:26:33.556Z,65.97
2022-10-22T13:29:38.191Z,66.18
2022-10-22T13:35:44.304Z,66.46
2022-10-22T13:38:46.912Z,65.82
2022-10-22T13:41:51.442Z,66.45
2022-10-22T13:44:54.004Z,65.31
2022-10-22T13:47:57.060Z,66.27
2022-10-22T13:50:59.702Z,66.89
2022-10-22T13:54:03.801Z,66.17
2022-10-22T13:57:09.978Z,66.78
2022-10-22T14:00:15.086Z,67.13
2022-10-22T14:03:20.960Z,67.51
2022-10-22T14:06:24.011Z,67.35
2022-10-22T14:09:26.730Z,66.48
2022-10-22T14:12:31.741Z,66.96
2022-10-22T14:15:35.469Z,66.84
2022-10-22T14:18:38.150Z,66.78
2022-10-22T14:21:40.875Z,66.44
2022-10-22T14:24:43.565Z,67.06
2022-10-22T14:27:47.605Z,67.40
2022-10-22T14:30:51.233Z,67.27
2022-10-22T14:33:53.931Z,67.36
2022-10-22T14:36:56.484Z,67.67
2022-10-22T14:40:02.484Z,67.05
2022-10-22T14:43:06.950Z,67.37
2022-10-22T14:46:11.944Z,67.68
2022-10-22T14:49:14.761Z,68.03
2022-10-22T14:52:17.439Z,68.48
2022-10-22T14:55:21.199Z,68.42
2022-10-22T14:58:25.098Z,68.47
2022-10-22T15:01:27.759Z,68.16
2022-10-22T15:04:30.542Z,68.73
2022-10-22T15:07:33.423Z,69.09
2022-10-22T15:10:36.130Z,69.35
2022-10-22T15:13:41.230Z,69.39
2022-10-22T15:16:43.773Z,69.35
2022-10-22T15:19:46.543Z,69.47
2022-10-22T15:22:49.156Z,69.84
2022-10-22T15:25:51.804Z,69.97
2022-10-22T15:28:56.276Z,70.71
2022-10-22T15:31:59.475Z,71.00
2022-10-22T15:35:02.741Z,71.42
2022-10-22T15:38:06.523Z,71.77
2022-10-22T15:41:12.516Z,72.12
2022-10-22T15:44:18.517Z,72.55
2022-10-22T15:47:21.216Z,73.07
2022-10-22T15:50:23.825Z,73.63
2022-10-22T15:53:26.398Z,74.00
2022-10-22T15:56:30.164Z,74.39
2022-10-22T15:59:34.090Z,74.60
2022-10-22T16:02:36.718Z,74.65
2022-10-22T16:05:39.405Z,74.98
2022-10-22T16:08:41.999Z,75.08
2022-10-22T16:11:45.128Z,75.68
2022-10-22T16:14:51.109Z,75.83
2022-10-22T16:17:53.671Z,76.27
2022-10-22T16:20:56.237Z,76.53
2022-10-22T16:24:05.996Z,76.54
2022-10-22T16:27:09.775Z,76.63
2022-10-22T16:30:14.653Z,76.93
2022-10-22T16:33:17.344Z,76.81
2022-10-22T16:36:21.431Z,77.21
2022-10-22T16:39:24.493Z,77.21
2022-10-22T16:42:27.213Z,77.04
2022-10-22T16:45:31.182Z,77.36
2022-10-22T16:48:34.315Z,77.13
2022-10-22T16:51:37.401Z,77.15
2022-10-22T16:54:40.009Z,77.32
2022-10-22T16:57:42.970Z,77.28
2022-10-22T17:00:47.092Z,77.66
2022-10-22T17:03:49.835Z,77.95
2022-10-22T17:06:52.510Z,77.76
2022-10-22T17:09:55.064Z,78.23
2022-10-22T17:12:57.804Z,78.51
2022-10-22T17:16:03.877Z,79.04
2022-10-22T17:19:06.641Z,78.96
2022-10-22T17:22:09.321Z,78.82
2022-10-22T17:25:14.766Z,78.54
2022-10-22T17:28:17.479Z,78.60
2022-10-22T17:31:23.450Z,79.03
2022-10-22T17:34:27.236Z,78.69
2022-10-22T17:37:30.173Z,78.72
2022-10-22T17:40:32.763Z,78.40
2022-10-22T17:43:36.572Z,78.64
2022-10-22T17:46:40.805Z,78.45
2022-10-22T17:49:43.541Z,78.40
2022-10-22T17:52:46.423Z,78.69
2022-10-22T17:55:48.994Z,78.51
2022-10-22T17:58:52.393Z,78.79
2022-10-22T18:01:59.482Z,79.10
2022-10-22T18:05:02.825Z,78.82
2022-10-22T18:08:07.833Z,79.14
2022-10-22T18:11:13.006Z,78.74
2022-10-22T18:14:15.713Z,78.69
2022-10-22T18:17:19.629Z,79.28
2022-10-22T18:20:22.357Z,79.11
2022-10-22T18:23:24.952Z,79.31
2022-10-22T18:26:27.601Z,78.79
2022-10-22T18:29:30.368Z,79.48
2022-10-22T18:32:34.977Z,79.07
2022-10-22T18:35:37.813Z,79.16
2022-10-22T18:38:40.815Z,79.72
2022-10-22T18:41:43.643Z,79.72
2022-10-22T18:44:46.382Z,79.40
2022-10-22T18:47:50.364Z,79.65
2022-10-22T18:51:00.854Z,79.07
2022-10-22T18:54:05.817Z,79.13
2022-10-22T18:57:14.201Z,79.41
2022-10-22T19:00:17.620Z,79.60
2022-10-22T19:03:24.403Z,79.66
2022-10-22T19:06:34.477Z,79.51
2022-10-22T19:09:40.822Z,79.63
2022-10-22T19:12:43.624Z,79.20
2022-10-22T19:15:46.388Z,79.17
2022-10-22T19:18:50.954Z,78.88
2022-10-22T19:21:56.524Z,79.00
2022-10-22T19:24:59.242Z,79.36
2022-10-22T19:28:01.966Z,79.11
2022-10-22T19:31:06.040Z,79.57
2022-10-22T19:34:11.088Z,79.86
2022-10-22T19:37:13.880Z,79.40
2022-10-22T19:40:16.635Z,79.52
2022-10-22T19:43:19.267Z,79.29
2022-10-22T19:46:23.566Z,79.10
2022-10-22T19:49:27.632Z,79.78
2022-10-22T19:52:30.346Z,80.48
2022-10-22T19:55:32.971Z,78.98
2022-10-22T19:58:35.830Z,79.92
2022-10-22T20:01:39.132Z,80.12
2022-10-22T20:04:45.665Z,79.64
2022-10-22T20:07:51.739Z,79.90
2022-10-22T20:10:54.410Z,79.52
2022-10-22T20:13:57.517Z,79.12
2022-10-22T20:17:00.452Z,78.90
2022-10-22T20:20:05.136Z,78.80
2022-10-22T20:23:08.694Z,78.97
2022-10-22T20:26:12.779Z,79.52
2022-10-22T20:29:16.072Z,79.80
2022-10-22T20:32:18.784Z,80.24
2022-10-22T20:35:22.686Z,80.58
2022-10-22T20:38:25.316Z,80.37
2022-10-22T20:41:28.269Z,79.98
2022-10-22T20:44:33.655Z,80.28
2022-10-22T20:47:50.905Z,81.30
2022-10-22T20:50:55.841Z,81.48
2022-10-22T20:53:58.798Z,81.62
2022-10-22T20:57:02.069Z,81.04
2022-10-22T21:00:05.255Z,81.06
2022-10-22T21:03:08.004Z,81.10
2022-10-22T21:06:11.915Z,81.30
2022-10-22T21:09:15.867Z,80.85
2022-10-22T21:12:18.658Z,81.23
2022-10-22T21:15:21.315Z,80.75
2022-10-22T21:18:24.039Z,81.27
2022-10-22T21:21:28.031Z,81.34
2022-10-22T21:24:30.898Z,80.78
2022-10-22T21:27:34.381Z,81.08
2022-10-22T21:30:36.970Z,80.67
2022-10-22T21:33:40.545Z,80.83
2022-10-22T21:36:44.905Z,80.70
2022-10-22T21:39:47.588Z,80.44
2022-10-22T21:42:51.402Z,81.46
2022-10-22T21:46:07.743Z,81.53
2022-10-22T21:49:11.166Z,80.98
2022-10-22T21:52:15.134Z,81.63
2022-10-22T21:55:17.980Z,81.45
2022-10-22T21:58:20.684Z,80.75
2022-10-22T22:01:23.916Z,81.41
2022-10-22T22:04:27.125Z,81.06
2022-10-22T22:07:31.019Z,81.42
2022-10-22T22:10:33.708Z,81.18
2022-10-22T22:13:37.168Z,81.41
2022-10-22T22:16:40.618Z,81.45
2022-10-22T22:19:43.853Z,81.48
2022-10-22T22:22:47.757Z,81.57
2022-10-22T22:25:50.567Z,81.51
2022-10-22T22:28:53.252Z,81.23
2022-10-22T22:31:56.205Z,81.07
2022-10-22T22:34:58.881Z,80.87
2022-10-22T22:38:02.804Z,80.81
2022-10-22T22:41:06.130Z,80.69
2022-10-22T22:44:12.932Z,80.45
2022-10-22T22:47:15.504Z,80.87
2022-10-22T22:50:18.337Z,80.97
2022-10-22T22:53:22.309Z,80.93
2022-10-22T22:56:28.805Z,80.65
2022-10-22T22:59:31.510Z,80.40
2022-10-22T23:02:34.085Z,80.25
2022-10-22T23:05:37.615Z,80.54
2022-10-22T23:08:42.183Z,80.48
2022-10-22T23:11:46.846Z,80.00
2022-10-22T23:14:51.212Z,80.02
2022-10-22T23:17:53.798Z,79.84
2022-10-22T23:20:56.483Z,80.27
2022-10-22T23:24:02.977Z,80.04
2022-10-22T23:27:05.914Z,79.57
2022-10-22T23:30:10.243Z,80.03
2022-10-22T23:33:13.162Z,79.73
2022-10-22T23:36:16.143Z,80.17
2022-10-22T23:39:22.591Z,80.63
2022-10-22T23:42:25.260Z,81.05
2022-10-22T23:45:28.014Z,80.63
2022-10-22T23:48:30.551Z,80.68
2022-10-22T23:51:33.374Z,80.84
2022-10-22T23:54:37.279Z,80.77
2022-10-22T23:57:39.953Z,80.88
